Main page
METAR-TAF:

METAR-TAF

Airports :

Fort-de-France, Martinique

Martinique Aimé Césaire International Airport

latitude: 14-36N, longitude: 061-00W, elevation: 5 m

Current weather observation

The report was made 27 minutes ago, at 11:30 UTC
Wind 3 kt from variable directions
Temperature 25°C
Humidity 94%
Pressure 1012 hPa
Visibility 10 km or more
Few clouds at a height of 2500 ft
Scattered clouds at a height of 3100 ft

METAR: TFFF 201130Z AUTO VRB03KT 9999 FEW025 SCT031 25/24 Q1012 NOSIG

Time: 07:57 (11:57 UTC)

Forecast

The report was made 57 minutes ago, at 11:00 UTC
Forecast valid from 20 at 12 UTC to 21 at 12 UTC
Wind 10 kt from the East
Visibility 10 km or more
Scattered clouds at a height of 3000 ft
Probability 30% :
Temporary
from 20 at 22 UTC to 21 at 12 UTC
Few clouds at a height of 1500 ft, Towering cumulus.

TAF: TFFF 201100Z 2012/2112 08010KT 9999 SCT030 PROB30 TEMPO 2022/2112 FEW015TCU

Weather observations and forecasts of more than 4000 airports (METAR and TAF reports).

The available stations are represented by yellow and red dots on the map.

Hover mouse over dot to see the name of the station.

Then click to see weather observations and forecasts.

To change the map : click on the green buttons with a black cross to zoom in, on the green button with a dash to zoom out, or on the green arrows for adjacent maps.


METAR-TAF: